sensor_id;sensor_type;location;lat;lon;timestamp;temperature;humidity
37938;DHT22;23763;48.130;11.602;2023-02-15T00:01:24;1.10;99.90
37938;DHT22;23763;48.130;11.602;2023-02-15T00:03:50;1.00;99.90
37938;DHT22;23763;48.130;11.602;2023-02-15T00:06:17;1.00;99.90
37938;DHT22;23763;48.130;11.602;2023-02-15T00:08:42;1.00;99.90
37938;DHT22;23763;48.130;11.602;2023-02-15T00:11:14;1.00;99.90
37938;DHT22;23763;48.130;11.602;2023-02-15T00:13:40;0.90;99.90
37938;DHT22;23763;48.130;11.602;2023-02-15T00:16:12;0.90;99.90
37938;DHT22;23763;48.130;11.602;2023-02-15T00:18:40;0.90;99.90
37938;DHT22;23763;48.130;11.602;2023-02-15T00:21:07;0.80;99.90
37938;DHT22;23763;48.130;11.602;2023-02-15T00:23:34;0.80;99.90
37938;DHT22;23763;48.130;11.602;2023-02-15T00:26:07;0.90;99.90
37938;DHT22;23763;48.130;11.602;2023-02-15T00:28:33;0.50;99.90
37938;DHT22;23763;48.130;11.602;2023-02-15T00:31:06;0.50;99.90
37938;DHT22;23763;48.130;11.602;2023-02-15T00:33:32;0.60;99.90
37938;DHT22;23763;48.130;11.602;2023-02-15T00:35:59;0.60;99.90
37938;DHT22;23763;48.130;11.602;2023-02-15T00:38:27;0.60;99.90
37938;DHT22;23763;48.130;11.602;2023-02-15T00:40:58;0.70;99.90
37938;DHT22;23763;48.130;11.602;2023-02-15T00:43:25;0.60;99.90
37938;DHT22;23763;48.130;11.602;2023-02-15T00:45:51;0.60;99.90
37938;DHT22;23763;48.130;11.602;2023-02-15T00:48:17;0.60;99.90
37938;DHT22;23763;48.130;11.602;2023-02-15T00:50:51;0.70;99.90
37938;DHT22;23763;48.130;11.602;2023-02-15T00:53:17;0.60;99.90
37938;DHT22;23763;48.130;11.602;2023-02-15T00:55:43;0.60;99.90
37938;DHT22;23763;48.130;11.602;2023-02-15T00:58:10;0.60;99.90
37938;DHT22;23763;48.130;11.602;2023-02-15T01:00:36;0.60;99.90
37938;DHT22;23763;48.130;11.602;2023-02-15T01:03:02;0.50;99.90
37938;DHT22;23763;48.130;11.602;2023-02-15T01:05:27;0.50;99.90
37938;DHT22;23763;48.130;11.602;2023-02-15T01:07:55;0.20;99.90
37938;DHT22;23763;48.130;11.602;2023-02-15T01:10:21;0.20;99.90
37938;DHT22;23763;48.130;11.602;2023-02-15T01:12:47;0.30;99.90
37938;DHT22;23763;48.130;11.602;2023-02-15T01:15:13;0.40;99.90
37938;DHT22;23763;48.130;11.602;2023-02-15T01:17:39;0.30;99.90
37938;DHT22;23763;48.130;11.602;2023-02-15T01:20:06;0.20;99.90
37938;DHT22;23763;48.130;11.602;2023-02-15T01:22:32;0.10;99.90
37938;DHT22;23763;48.130;11.602;2023-02-15T01:24:57;0.20;99.90
37938;DHT22;23763;48.130;11.602;2023-02-15T01:27:23;0.20;99.90
37938;DHT22;23763;48.130;11.602;2023-02-15T01:29:49;0.30;99.90
37938;DHT22;23763;48.130;11.602;2023-02-15T01:32:14;0.40;99.90
37938;DHT22;23763;48.130;11.602;2023-02-15T01:34:40;0.40;99.90
37938;DHT22;23763;48.130;11.602;2023-02-15T01:37:05;0.30;99.90
37938;DHT22;23763;48.130;11.602;2023-02-15T01:39:31;0.30;99.90
37938;DHT22;23763;48.130;11.602;2023-02-15T01:41:56;0.20;99.90
37938;DHT22;23763;48.130;11.602;2023-02-15T01:44:51;0.10;99.90
37938;DHT22;23763;48.130;11.602;2023-02-15T01:47:38;0.00;99.90
37938;DHT22;23763;48.130;11.602;2023-02-15T01:50:22;0.00;99.90
37938;DHT22;23763;48.130;11.602;2023-02-15T01:55:45;-0.20;99.90
37938;DHT22;23763;48.130;11.602;2023-02-15T01:58:12;-0.20;99.90
37938;DHT22;23763;48.130;11.602;2023-02-15T02:00:39;-0.30;99.90
37938;DHT22;23763;48.130;11.602;2023-02-15T02:03:05;-0.30;99.90
37938;DHT22;23763;48.130;11.602;2023-02-15T02:05:32;-0.20;99.90
37938;DHT22;23763;48.130;11.602;2023-02-15T02:07:59;-0.20;99.90
37938;DHT22;23763;48.130;11.602;2023-02-15T02:10:26;-0.20;99.90
37938;DHT22;23763;48.130;11.602;2023-02-15T02:13:00;-0.20;99.90
37938;DHT22;23763;48.130;11.602;2023-02-15T02:35:33;0.30;99.90
37938;DHT22;23763;48.130;11.602;2023-02-15T02:38:14;0.40;99.90
37938;DHT22;23763;48.130;11.602;2023-02-15T02:40:52;0.40;99.90
37938;DHT22;23763;48.130;11.602;2023-02-15T02:43:29;0.40;99.90
37938;DHT22;23763;48.130;11.602;2023-02-15T02:46:02;0.40;99.90
37938;DHT22;23763;48.130;11.602;2023-02-15T02:48:32;0.40;99.90
37938;DHT22;23763;48.130;11.602;2023-02-15T02:50:58;0.40;99.90
37938;DHT22;23763;48.130;11.602;2023-02-15T02:53:24;0.50;99.90
37938;DHT22;23763;48.130;11.602;2023-02-15T02:55:55;0.30;99.90
37938;DHT22;23763;48.130;11.602;2023-02-15T02:58:38;0.40;99.90
37938;DHT22;23763;48.130;11.602;2023-02-15T03:01:30;0.30;99.90
37938;DHT22;23763;48.130;11.602;2023-02-15T03:04:00;0.40;99.90
37938;DHT22;23763;48.130;11.602;2023-02-15T03:06:52;0.40;99.90
37938;DHT22;23763;48.130;11.602;2023-02-15T03:09:28;0.30;99.90
37938;DHT22;23763;48.130;11.602;2023-02-15T03:12:11;0.30;99.90
37938;DHT22;23763;48.130;11.602;2023-02-15T03:14:40;0.30;99.90
37938;DHT22;23763;48.130;11.602;2023-02-15T03:17:08;0.50;99.90
37938;DHT22;23763;48.130;11.602;2023-02-15T03:19:36;0.50;99.90
37938;DHT22;23763;48.130;11.602;2023-02-15T03:22:14;0.50;99.90
37938;DHT22;23763;48.130;11.602;2023-02-15T03:25:05;0.40;99.90
37938;DHT22;23763;48.130;11.602;2023-02-15T03:27:34;0.20;99.90
37938;DHT22;23763;48.130;11.602;2023-02-15T03:30:02;0.20;99.90
37938;DHT22;23763;48.130;11.602;2023-02-15T03:32:31;0.20;99.90
37938;DHT22;23763;48.130;11.602;2023-02-15T03:34:58;0.30;99.90
37938;DHT22;23763;48.130;11.602;2023-02-15T03:37:44;0.40;99.90
37938;DHT22;23763;48.130;11.602;2023-02-15T03:40:18;0.50;99.90
37938;DHT22;23763;48.130;11.602;2023-02-15T03:43:21;0.60;99.90
37938;DHT22;23763;48.130;11.602;2023-02-15T03:45:54;0.60;99.90
37938;DHT22;23763;48.130;11.602;2023-02-15T03:48:25;0.50;99.90
37938;DHT22;23763;48.130;11.602;2023-02-15T03:50:55;0.60;99.90
37938;DHT22;23763;48.130;11.602;2023-02-15T03:53:42;0.60;99.90
37938;DHT22;23763;48.130;11.602;2023-02-15T03:56:08;0.50;99.90
37938;DHT22;23763;48.130;11.602;2023-02-15T03:58:34;0.60;99.90
37938;DHT22;23763;48.130;11.602;2023-02-15T04:04:13;0.60;99.90
37938;DHT22;23763;48.130;11.602;2023-02-15T04:06:40;0.60;99.90
37938;DHT22;23763;48.130;11.602;2023-02-15T04:09:05;0.70;99.90
37938;DHT22;23763;48.130;11.602;2023-02-15T04:11:50;0.70;99.90
37938;DHT22;23763;48.130;11.602;2023-02-15T04:14:15;0.70;99.90
37938;DHT22;23763;48.130;11.602;2023-02-15T04:16:59;0.70;99.90
37938;DHT22;23763;48.130;11.602;2023-02-15T04:19:25;0.70;99.90
37938;DHT22;23763;48.130;11.602;2023-02-15T04:22:09;0.40;99.90
37938;DHT22;23763;48.130;11.602;2023-02-15T04:24:53;0.40;99.90
37938;DHT22;23763;48.130;11.602;2023-02-15T04:27:38;0.40;99.90
37938;DHT22;23763;48.130;11.602;2023-02-15T04:30:05;0.30;99.90
37938;DHT22;23763;48.130;11.602;2023-02-15T04:32:31;0.30;99.90
37938;DHT22;23763;48.130;11.602;2023-02-15T04:34:57;0.50;99.90
37938;DHT22;23763;48.130;11.602;2023-02-15T04:37:23;0.40;99.90
37938;DHT22;23763;48.130;11.602;2023-02-15T04:39:48;0.50;99.90
37938;DHT22;23763;48.130;11.602;2023-02-15T04:42:15;0.60;99.90
37938;DHT22;23763;48.130;11.602;2023-02-15T04:45:01;0.70;99.90
37938;DHT22;23763;48.130;11.602;2023-02-15T04:47:27;0.80;99.90
37938;DHT22;23763;48.130;11.602;2023-02-15T04:52:30;0.50;99.90
37938;DHT22;23763;48.130;11.602;2023-02-15T04:54:56;0.60;99.90
37938;DHT22;23763;48.130;11.602;2023-02-15T04:57:21;0.40;99.90
37938;DHT22;23763;48.130;11.602;2023-02-15T04:59:47;0.50;99.90
37938;DHT22;23763;48.130;11.602;2023-02-15T05:02:12;0.50;99.90
37938;DHT22;23763;48.130;11.602;2023-02-15T05:04:38;0.40;99.90
37938;DHT22;23763;48.130;11.602;2023-02-15T05:07:04;0.40;99.90
37938;DHT22;23763;48.130;11.602;2023-02-15T05:09:29;0.40;99.90
37938;DHT22;23763;48.130;11.602;2023-02-15T05:11:55;0.40;99.90
37938;DHT22;23763;48.130;11.602;2023-02-15T05:14:21;0.40;99.90
37938;DHT22;23763;48.130;11.602;2023-02-15T05:16:46;0.20;99.90
37938;DHT22;23763;48.130;11.602;2023-02-15T05:19:12;0.30;99.90
37938;DHT22;23763;48.130;11.602;2023-02-15T05:21:37;0.30;99.90
37938;DHT22;23763;48.130;11.602;2023-02-15T05:24:03;0.20;99.90
37938;DHT22;23763;48.130;11.602;2023-02-15T05:26:49;0.30;99.90
37938;DHT22;23763;48.130;11.602;2023-02-15T05:29:33;0.10;99.90
37938;DHT22;23763;48.130;11.602;2023-02-15T05:31:58;0.10;99.90
37938;DHT22;23763;48.130;11.602;2023-02-15T05:34:24;0.00;99.90
37938;DHT22;23763;48.130;11.602;2023-02-15T05:36:49;0.00;99.90
37938;DHT22;23763;48.130;11.602;2023-02-15T05:39:15;0.00;99.90
37938;DHT22;23763;48.130;11.602;2023-02-15T05:41:41;0.00;99.90
37938;DHT22;23763;48.130;11.602;2023-02-15T05:44:06;0.10;99.90
37938;DHT22;23763;48.130;11.602;2023-02-15T05:46:32;0.00;99.90
37938;DHT22;23763;48.130;11.602;2023-02-15T05:48:58;0.00;99.90
37938;DHT22;23763;48.130;11.602;2023-02-15T05:51:23;-0.10;99.90
37938;DHT22;23763;48.130;11.602;2023-02-15T05:53:49;0.00;99.90
37938;DHT22;23763;48.130;11.602;2023-02-15T05:56:14;0.10;99.90
37938;DHT22;23763;48.130;11.602;2023-02-15T05:58:41;0.20;99.90
37938;DHT22;23763;48.130;11.602;2023-02-15T06:01:09;0.00;99.90
37938;DHT22;23763;48.130;11.602;2023-02-15T06:03:34;0.10;99.90
37938;DHT22;23763;48.130;11.602;2023-02-15T06:06:00;0.20;99.90
37938;DHT22;23763;48.130;11.602;2023-02-15T06:08:25;0.20;99.90
37938;DHT22;23763;48.130;11.602;2023-02-15T06:10:51;0.10;99.90
37938;DHT22;23763;48.130;11.602;2023-02-15T06:13:17;0.10;99.90
37938;DHT22;23763;48.130;11.602;2023-02-15T06:15:42;0.20;99.90
37938;DHT22;23763;48.130;11.602;2023-02-15T06:18:08;0.30;99.90
37938;DHT22;23763;48.130;11.602;2023-02-15T06:20:33;0.40;99.90
37938;DHT22;23763;48.130;11.602;2023-02-15T06:22:59;0.40;99.90
37938;DHT22;23763;48.130;11.602;2023-02-15T06:25:25;0.50;99.90
37938;DHT22;23763;48.130;11.602;2023-02-15T06:27:50;0.40;99.90
37938;DHT22;23763;48.130;11.602;2023-02-15T06:30:16;0.50;99.90
37938;DHT22;23763;48.130;11.602;2023-02-15T06:32:42;0.50;99.90
37938;DHT22;23763;48.130;11.602;2023-02-15T06:35:08;0.30;99.90
37938;DHT22;23763;48.130;11.602;2023-02-15T06:37:33;0.40;99.90
37938;DHT22;23763;48.130;11.602;2023-02-15T06:40:02;0.40;99.90
37938;DHT22;23763;48.130;11.602;2023-02-15T06:42:29;0.40;99.90
37938;DHT22;23763;48.130;11.602;2023-02-15T06:44:55;0.20;99.90
37938;DHT22;23763;48.130;11.602;2023-02-15T06:47:21;0.10;99.90
37938;DHT22;23763;48.130;11.602;2023-02-15T06:49:46;0.10;99.90
37938;DHT22;23763;48.130;11.602;2023-02-15T06:52:12;0.10;99.90
37938;DHT22;23763;48.130;11.602;2023-02-15T06:54:38;0.10;99.90
37938;DHT22;23763;48.130;11.602;2023-02-15T06:57:03;0.00;99.90
37938;DHT22;23763;48.130;11.602;2023-02-15T06:59:29;0.10;99.90
37938;DHT22;23763;48.130;11.602;2023-02-15T07:01:55;0.40;99.90
37938;DHT22;23763;48.130;11.602;2023-02-15T07:04:20;0.30;99.90
37938;DHT22;23763;48.130;11.602;2023-02-15T07:06:46;0.40;99.90
37938;DHT22;23763;48.130;11.602;2023-02-15T07:09:12;0.40;99.90
37938;DHT22;23763;48.130;11.602;2023-02-15T07:11:38;0.40;99.90
37938;DHT22;23763;48.130;11.602;2023-02-15T07:14:22;0.30;99.90
37938;DHT22;23763;48.130;11.602;2023-02-15T07:16:48;0.50;99.90
37938;DHT22;23763;48.130;11.602;2023-02-15T07:19:13;0.40;99.90
37938;DHT22;23763;48.130;11.602;2023-02-15T07:21:39;0.50;99.90
37938;DHT22;23763;48.130;11.602;2023-02-15T07:24:05;0.40;99.90
37938;DHT22;23763;48.130;11.602;2023-02-15T07:26:33;0.40;99.90
37938;DHT22;23763;48.130;11.602;2023-02-15T07:28:59;0.50;99.90
37938;DHT22;23763;48.130;11.602;2023-02-15T07:31:25;0.60;99.90
37938;DHT22;23763;48.130;11.602;2023-02-15T07:33:50;0.70;99.90
37938;DHT22;23763;48.130;11.602;2023-02-15T07:36:16;0.60;99.90
37938;DHT22;23763;48.130;11.602;2023-02-15T07:38:42;0.50;99.90
37938;DHT22;23763;48.130;11.602;2023-02-15T07:41:13;0.60;99.90
37938;DHT22;23763;48.130;11.602;2023-02-15T07:43:41;0.80;99.90
37938;DHT22;23763;48.130;11.602;2023-02-15T07:46:13;0.70;99.90
37938;DHT22;23763;48.130;11.602;2023-02-15T07:48:39;0.70;99.90
37938;DHT22;23763;48.130;11.602;2023-02-15T07:51:07;0.80;99.90
37938;DHT22;23763;48.130;11.602;2023-02-15T07:53:33;0.90;99.90
37938;DHT22;23763;48.130;11.602;2023-02-15T07:56:03;1.00;99.90
37938;DHT22;23763;48.130;11.602;2023-02-15T07:58:29;1.10;99.90
37938;DHT22;23763;48.130;11.602;2023-02-15T08:01:15;1.00;99.90
37938;DHT22;23763;48.130;11.602;2023-02-15T08:03:41;1.00;99.90
37938;DHT22;23763;48.130;11.602;2023-02-15T08:06:07;0.90;99.90
37938;DHT22;23763;48.130;11.602;2023-02-15T08:08:34;0.90;99.90
37938;DHT22;23763;48.130;11.602;2023-02-15T08:11:01;0.90;99.90
37938;DHT22;23763;48.130;11.602;2023-02-15T08:13:48;1.00;99.90
37938;DHT22;23763;48.130;11.602;2023-02-15T08:19:16;1.10;99.90
37938;DHT22;23763;48.130;11.602;2023-02-15T08:21:44;1.00;99.90
37938;DHT22;23763;48.130;11.602;2023-02-15T08:24:11;1.00;99.90
37938;DHT22;23763;48.130;11.602;2023-02-15T08:26:38;1.10;99.90
37938;DHT22;23763;48.130;11.602;2023-02-15T08:29:05;1.00;99.90
37938;DHT22;23763;48.130;11.602;2023-02-15T08:31:32;1.10;99.90
37938;DHT22;23763;48.130;11.602;2023-02-15T08:33:57;1.10;99.90
37938;DHT22;23763;48.130;11.602;2023-02-15T08:36:27;1.10;99.90
37938;DHT22;23763;48.130;11.602;2023-02-15T08:38:53;1.20;99.90
37938;DHT22;23763;48.130;11.602;2023-02-15T08:41:19;1.30;99.90
37938;DHT22;23763;48.130;11.602;2023-02-15T08:43:47;1.50;99.90
37938;DHT22;23763;48.130;11.602;2023-02-15T08:46:14;1.70;99.90
37938;DHT22;23763;48.130;11.602;2023-02-15T08:48:40;1.90;99.90
37938;DHT22;23763;48.130;11.602;2023-02-15T08:51:17;2.00;99.90
37938;DHT22;23763;48.130;11.602;2023-02-15T08:53:48;2.00;99.90
37938;DHT22;23763;48.130;11.602;2023-02-15T08:56:19;2.00;99.90
37938;DHT22;23763;48.130;11.602;2023-02-15T08:58:45;2.00;99.90
37938;DHT22;23763;48.130;11.602;2023-02-15T09:01:17;1.70;99.90
37938;DHT22;23763;48.130;11.602;2023-02-15T09:03:44;1.40;99.90
37938;DHT22;23763;48.130;11.602;2023-02-15T09:06:10;1.30;99.90
37938;DHT22;23763;48.130;11.602;2023-02-15T09:08:37;1.40;99.90
37938;DHT22;23763;48.130;11.602;2023-02-15T09:11:08;1.10;99.90
37938;DHT22;23763;48.130;11.602;2023-02-15T09:13:34;1.00;99.90
37938;DHT22;23763;48.130;11.602;2023-02-15T09:16:10;1.00;99.90
37938;DHT22;23763;48.130;11.602;2023-02-15T09:18:38;1.20;99.90
37938;DHT22;23763;48.130;11.602;2023-02-15T09:21:10;1.30;99.90
37938;DHT22;23763;48.130;11.602;2023-02-15T09:23:36;1.40;99.90
37938;DHT22;23763;48.130;11.602;2023-02-15T09:26:07;1.40;99.90
37938;DHT22;23763;48.130;11.602;2023-02-15T09:28:33;1.40;99.90
37938;DHT22;23763;48.130;11.602;2023-02-15T09:31:06;1.60;99.90
37938;DHT22;23763;48.130;11.602;2023-02-15T09:33:34;1.70;99.90
37938;DHT22;23763;48.130;11.602;2023-02-15T09:36:00;1.80;99.90
37938;DHT22;23763;48.130;11.602;2023-02-15T09:38:26;1.90;99.90
37938;DHT22;23763;48.130;11.602;2023-02-15T09:46:20;2.40;99.90
37938;DHT22;23763;48.130;11.602;2023-02-15T09:48:58;2.60;99.90
37938;DHT22;23763;48.130;11.602;2023-02-15T09:51:58;2.60;99.90
37938;DHT22;23763;48.130;11.602;2023-02-15T09:54:33;2.60;99.90
37938;DHT22;23763;48.130;11.602;2023-02-15T09:57:10;2.70;99.90
37938;DHT22;23763;48.130;11.602;2023-02-15T10:13:32;3.00;99.90
37938;DHT22;23763;48.130;11.602;2023-02-15T10:18:53;3.10;99.90
37938;DHT22;23763;48.130;11.602;2023-02-15T10:21:39;3.20;99.90
37938;DHT22;23763;48.130;11.602;2023-02-15T10:27:15;3.30;99.90
37938;DHT22;23763;48.130;11.602;2023-02-15T10:32:26;3.30;99.90
37938;DHT22;23763;48.130;11.602;2023-02-15T10:35:00;3.40;99.90
37938;DHT22;23763;48.130;11.602;2023-02-15T10:37:44;3.60;99.90
37938;DHT22;23763;48.130;11.602;2023-02-15T10:40:38;3.60;99.90
37938;DHT22;23763;48.130;11.602;2023-02-15T10:56:38;4.30;99.90
37938;DHT22;23763;48.130;11.602;2023-02-15T11:05:29;4.60;99.90
37938;DHT22;23763;48.130;11.602;2023-02-15T11:08:03;4.80;99.90
37938;DHT22;23763;48.130;11.602;2023-02-15T11:10:48;4.80;99.90
37938;DHT22;23763;48.130;11.602;2023-02-15T11:13:18;4.90;99.90
37938;DHT22;23763;48.130;11.602;2023-02-15T11:15:53;5.00;99.90
37938;DHT22;23763;48.130;11.602;2023-02-15T11:18:37;5.10;99.90
37938;DHT22;23763;48.130;11.602;2023-02-15T11:21:21;5.20;99.90
37938;DHT22;23763;48.130;11.602;2023-02-15T11:23:48;5.40;99.90
37938;DHT22;23763;48.130;11.602;2023-02-15T11:29:54;5.60;99.90
37938;DHT22;23763;48.130;11.602;2023-02-15T11:37:50;5.90;99.90
37938;DHT22;23763;48.130;11.602;2023-02-15T11:40:36;6.00;99.90
37938;DHT22;23763;48.130;11.602;2023-02-15T11:43:34;6.20;99.90
37938;DHT22;23763;48.130;11.602;2023-02-15T11:45:57;6.30;99.90
37938;DHT22;23763;48.130;11.602;2023-02-15T11:48:23;6.40;99.90
37938;DHT22;23763;48.130;11.602;2023-02-15T11:50:49;6.40;99.90
37938;DHT22;23763;48.130;11.602;2023-02-15T11:53:22;6.50;99.90
37938;DHT22;23763;48.130;11.602;2023-02-15T11:55:53;6.60;99.90
37938;DHT22;23763;48.130;11.602;2023-02-15T11:58:43;6.70;99.90
37938;DHT22;23763;48.130;11.602;2023-02-15T12:03:59;6.90;99.90
37938;DHT22;23763;48.130;11.602;2023-02-15T12:06:28;6.90;99.90
37938;DHT22;23763;48.130;11.602;2023-02-15T12:12:27;7.10;99.90
37938;DHT22;23763;48.130;11.602;2023-02-15T12:14:55;7.40;99.90
37938;DHT22;23763;48.130;11.602;2023-02-15T12:17:34;7.50;99.90
37938;DHT22;23763;48.130;11.602;2023-02-15T12:22:50;7.60;99.90
37938;DHT22;23763;48.130;11.602;2023-02-15T12:27:47;7.40;99.90
37938;DHT22;23763;48.130;11.602;2023-02-15T12:30:32;7.70;99.90
37938;DHT22;23763;48.130;11.602;2023-02-15T12:33:31;7.70;99.90
37938;DHT22;23763;48.130;11.602;2023-02-15T12:36:15;7.70;99.90
37938;DHT22;23763;48.130;11.602;2023-02-15T12:38:42;7.70;99.90
37938;DHT22;23763;48.130;11.602;2023-02-15T12:41:23;7.70;99.90
37938;DHT22;23763;48.130;11.602;2023-02-15T12:44:16;7.70;99.90
37938;DHT22;23763;48.130;11.602;2023-02-15T12:46:56;7.70;99.90
37938;DHT22;23763;48.130;11.602;2023-02-15T12:49:22;7.80;99.90
37938;DHT22;23763;48.130;11.602;2023-02-15T12:51:56;7.90;99.90
37938;DHT22;23763;48.130;11.602;2023-02-15T12:56:48;8.00;99.90
37938;DHT22;23763;48.130;11.602;2023-02-15T12:59:14;8.10;99.90
37938;DHT22;23763;48.130;11.602;2023-02-15T13:01:46;8.20;99.90
37938;DHT22;23763;48.130;11.602;2023-02-15T13:06:49;8.30;99.90
37938;DHT22;23763;48.130;11.602;2023-02-15T13:09:45;8.30;99.90
37938;DHT22;23763;48.130;11.602;2023-02-15T13:12:17;8.40;99.90
37938;DHT22;23763;48.130;11.602;2023-02-15T13:14:46;8.30;99.90
37938;DHT22;23763;48.130;11.602;2023-02-15T13:17:13;8.30;99.90
37938;DHT22;23763;48.130;11.602;2023-02-15T13:19:51;8.20;99.90
37938;DHT22;23763;48.130;11.602;2023-02-15T13:22:38;8.20;99.90
37938;DHT22;23763;48.130;11.602;2023-02-15T13:25:19;8.20;99.90
37938;DHT22;23763;48.130;11.602;2023-02-15T13:27:50;8.20;99.90
37938;DHT22;23763;48.130;11.602;2023-02-15T13:30:30;8.20;99.90
37938;DHT22;23763;48.130;11.602;2023-02-15T13:33:09;8.10;99.90
37938;DHT22;23763;48.130;11.602;2023-02-15T13:38:39;8.20;99.90
37938;DHT22;23763;48.130;11.602;2023-02-15T13:41:30;8.20;99.90
37938;DHT22;23763;48.130;11.602;2023-02-15T13:44:12;8.20;99.90
37938;DHT22;23763;48.130;11.602;2023-02-15T13:52:21;8.20;99.90
37938;DHT22;23763;48.130;11.602;2023-02-15T14:14:03;8.00;99.90
37938;DHT22;23763;48.130;11.602;2023-02-15T14:27:24;7.90;99.90
37938;DHT22;23763;48.130;11.602;2023-02-15T14:30:09;7.80;99.90
37938;DHT22;23763;48.130;11.602;2023-02-15T14:32:46;7.80;99.90
37938;DHT22;23763;48.130;11.602;2023-02-15T14:35:26;7.70;99.90
37938;DHT22;23763;48.130;11.602;2023-02-15T14:41:09;7.70;99.90
37938;DHT22;23763;48.130;11.602;2023-02-15T14:44:04;7.60;99.90
37938;DHT22;23763;48.130;11.602;2023-02-15T14:49:59;7.50;99.90
37938;DHT22;23763;48.130;11.602;2023-02-15T14:52:29;7.50;99.90
37938;DHT22;23763;48.130;11.602;2023-02-15T14:55:02;7.50;99.90
37938;DHT22;23763;48.130;11.602;2023-02-15T14:57:32;7.50;99.90
37938;DHT22;23763;48.130;11.602;2023-02-15T15:00:00;7.50;99.90
37938;DHT22;23763;48.130;11.602;2023-02-15T15:02:43;7.50;99.90
37938;DHT22;23763;48.130;11.602;2023-02-15T15:05:29;7.40;99.90
37938;DHT22;23763;48.130;11.602;2023-02-15T15:07:58;7.40;99.90
37938;DHT22;23763;48.130;11.602;2023-02-15T15:13:00;7.50;99.90
37938;DHT22;23763;48.130;11.602;2023-02-15T15:15:46;7.40;99.90
37938;DHT22;23763;48.130;11.602;2023-02-15T15:21:10;7.50;99.90
37938;DHT22;23763;48.130;11.602;2023-02-15T15:26:21;7.40;99.90
37938;DHT22;23763;48.130;11.602;2023-02-15T15:34:21;7.40;99.90
37938;DHT22;23763;48.130;11.602;2023-02-15T15:50:18;7.00;99.90
37938;DHT22;23763;48.130;11.602;2023-02-15T15:52:50;6.90;99.90
37938;DHT22;23763;48.130;11.602;2023-02-15T15:55:23;6.80;99.90
37938;DHT22;23763;48.130;11.602;2023-02-15T15:57:55;6.70;99.90
37938;DHT22;23763;48.130;11.602;2023-02-15T16:03:20;6.50;99.90
37938;DHT22;23763;48.130;11.602;2023-02-15T16:05:45;6.30;99.90
37938;DHT22;23763;48.130;11.602;2023-02-15T16:08:11;6.20;99.90
37938;DHT22;23763;48.130;11.602;2023-02-15T16:10:37;6.00;99.90
37938;DHT22;23763;48.130;11.602;2023-02-15T16:13:05;5.80;99.90
37938;DHT22;23763;48.130;11.602;2023-02-15T16:15:44;5.60;99.90
37938;DHT22;23763;48.130;11.602;2023-02-15T16:18:16;5.40;99.90
37938;DHT22;23763;48.130;11.602;2023-02-15T16:20:52;5.20;99.90
37938;DHT22;23763;48.130;11.602;2023-02-15T16:28:56;4.90;99.90
37938;DHT22;23763;48.130;11.602;2023-02-15T16:31:22;4.80;99.90
37938;DHT22;23763;48.130;11.602;2023-02-15T16:33:51;4.70;99.90
37938;DHT22;23763;48.130;11.602;2023-02-15T16:36:23;4.50;99.90
37938;DHT22;23763;48.130;11.602;2023-02-15T16:41:21;4.10;99.90
37938;DHT22;23763;48.130;11.602;2023-02-15T16:43:50;4.10;99.90
37938;DHT22;23763;48.130;11.602;2023-02-15T16:46:32;3.90;99.90
37938;DHT22;23763;48.130;11.602;2023-02-15T16:49:01;3.80;99.90
37938;DHT22;23763;48.130;11.602;2023-02-15T16:51:31;3.70;99.90
37938;DHT22;23763;48.130;11.602;2023-02-15T16:54:03;3.70;99.90
37938;DHT22;23763;48.130;11.602;2023-02-15T16:56:31;3.70;99.90
37938;DHT22;23763;48.130;11.602;2023-02-15T16:58:58;3.60;99.90
37938;DHT22;23763;48.130;11.602;2023-02-15T17:01:27;3.70;99.90
37938;DHT22;23763;48.130;11.602;2023-02-15T17:06:38;3.60;99.90
37938;DHT22;23763;48.130;11.602;2023-02-15T17:09:15;3.70;99.90
37938;DHT22;23763;48.130;11.602;2023-02-15T17:11:45;3.70;99.90
37938;DHT22;23763;48.130;11.602;2023-02-15T17:14:13;3.70;99.90
37938;DHT22;23763;48.130;11.602;2023-02-15T17:17:00;3.80;99.90
37938;DHT22;23763;48.130;11.602;2023-02-15T17:19:29;3.70;99.90
37938;DHT22;23763;48.130;11.602;2023-02-15T17:22:04;3.70;99.90
37938;DHT22;23763;48.130;11.602;2023-02-15T17:24:41;3.60;99.90
37938;DHT22;23763;48.130;11.602;2023-02-15T17:27:23;3.60;99.90
37938;DHT22;23763;48.130;11.602;2023-02-15T17:29:52;3.50;99.90
37938;DHT22;23763;48.130;11.602;2023-02-15T17:32:25;3.40;99.90
37938;DHT22;23763;48.130;11.602;2023-02-15T17:37:30;3.30;99.90
37938;DHT22;23763;48.130;11.602;2023-02-15T17:39:58;3.30;99.90
37938;DHT22;23763;48.130;11.602;2023-02-15T17:42:25;3.30;99.90
37938;DHT22;23763;48.130;11.602;2023-02-15T17:44:50;3.40;99.90
37938;DHT22;23763;48.130;11.602;2023-02-15T17:47:20;3.20;99.90
37938;DHT22;23763;48.130;11.602;2023-02-15T17:49:47;3.40;99.90
37938;DHT22;23763;48.130;11.602;2023-02-15T17:52:16;3.40;99.90
37938;DHT22;23763;48.130;11.602;2023-02-15T17:54:43;3.40;99.90
37938;DHT22;23763;48.130;11.602;2023-02-15T17:57:28;3.40;99.90
37938;DHT22;23763;48.130;11.602;2023-02-15T17:59:55;3.40;99.90
37938;DHT22;23763;48.130;11.602;2023-02-15T18:02:40;3.30;99.90
37938;DHT22;23763;48.130;11.602;2023-02-15T18:05:25;3.20;99.90
37938;DHT22;23763;48.130;11.602;2023-02-15T18:08:17;3.00;99.90
37938;DHT22;23763;48.130;11.602;2023-02-15T18:11:02;2.90;99.90
37938;DHT22;23763;48.130;11.602;2023-02-15T18:13:47;3.00;99.90
37938;DHT22;23763;48.130;11.602;2023-02-15T18:16:20;3.10;99.90
37938;DHT22;23763;48.130;11.602;2023-02-15T18:18:47;3.00;99.90
37938;DHT22;23763;48.130;11.602;2023-02-15T18:21:12;3.00;99.90
37938;DHT22;23763;48.130;11.602;2023-02-15T18:23:39;3.00;99.90
37938;DHT22;23763;48.130;11.602;2023-02-15T18:26:05;3.10;99.90
37938;DHT22;23763;48.130;11.602;2023-02-15T18:28:31;3.10;99.90
37938;DHT22;23763;48.130;11.602;2023-02-15T18:30:57;3.20;99.90
37938;DHT22;23763;48.130;11.602;2023-02-15T18:33:35;3.30;99.90
37938;DHT22;23763;48.130;11.602;2023-02-15T18:36:03;3.30;99.90
37938;DHT22;23763;48.130;11.602;2023-02-15T18:38:31;3.30;99.90
37938;DHT22;23763;48.130;11.602;2023-02-15T18:40:57;3.20;99.90
37938;DHT22;23763;48.130;11.602;2023-02-15T18:43:24;3.10;99.90
37938;DHT22;23763;48.130;11.602;2023-02-15T18:45:49;3.10;99.90
37938;DHT22;23763;48.130;11.602;2023-02-15T18:48:15;3.10;99.90
37938;DHT22;23763;48.130;11.602;2023-02-15T18:50:40;3.10;99.90
37938;DHT22;23763;48.130;11.602;2023-02-15T18:53:16;3.10;99.90
37938;DHT22;23763;48.130;11.602;2023-02-15T18:55:42;3.00;99.90
37938;DHT22;23763;48.130;11.602;2023-02-15T18:58:15;2.90;99.90
37938;DHT22;23763;48.130;11.602;2023-02-15T19:00:40;2.80;99.90
37938;DHT22;23763;48.130;11.602;2023-02-15T19:03:09;2.90;99.90
37938;DHT22;23763;48.130;11.602;2023-02-15T19:05:36;2.70;99.90
37938;DHT22;23763;48.130;11.602;2023-02-15T19:08:02;2.70;99.90